Milan Linate, Italy

9:41 AM CEST on September 01, 2014 (GMT +0200)
Peschiera Borromeo - Bellaria (Mi) | Change Station
CLOSE
Current Station
Personal Weather Station
Location: Peschiera Borromeo,
Elevation: 318 ft
Nearby Weather Stations

Elev 318 ft 45.42 °N, 9.31 °E | Updated 19 minutes ago

Scattered Clouds
Scattered Clouds
62.8 °F
Feels Like 62.8 °F
N
0.0
Wind Variable Wind from North
Gusts 0.0 mph

Today
High -- | Low -- °F
--% Chance of Precip.
Yesterday
High -- | Low -- °F
Precip. -- in
6:44 AM 8:00 PM
Waxing Crescent, 38% visible
Pressure 29.80 in
Visibility 6.2 miles
Clouds Scattered Clouds 1000 ft
Dew Point 60 °F
Humidity 90%
Rainfall 0.00 in
Snow Depth Not available.
UV 2 out of 12
Pollen Not available.
Air Quality Not available.
Flu Activity Not available.
METAR LIML 010720Z 09005KT 9999 SCT010 18/16 Q1009 NOSIG

More Conditions Fewer Conditions

Pressure 29.80 in
Visibility 6.2 miles
Clouds Scattered Clouds 1000 ft
Dew Point 60 °F
Humidity 90%
Rainfall 0.00 in
Snow Depth Not available.
UV 2 out of 12
Pollen Not available.
Air Quality Not available.
Flu Activity Not available.
METAR LIML 010720Z 09005KT 9999 SCT010 18/16 Q1009 NOSIG

More Conditions Fewer Conditions

10-Day Weather Forecast

Almanac

Astronomy

Sep. 01, 2014 Rise Set
Actual Time 6:44 AM CEST 8:00 PM CEST
Civil Twilight 6:13 AM CEST 8:31 PM CEST
Nautical Twilight 5:36 AM CEST 9:08 PM CEST
Astronomical Twilight 4:57 AM CEST 9:47 PM CEST
Moon 1:32 PM CEST 11:29 PM CEST
Length of Visible Light 14h 18m
Length of Day
13h 16m
Tomorrow will be 3m 4s shorter.
Waxing Crescent, 38% of the Moon is Illuminated
Today
Waxing Crescent
Sep 2
First Quarter
Sep 8
Full
Sep 15
Last Quarter
Sep 24
New

Yesterday's Extremes

Country Highs Country Lows

Community

WunderPhotos

Upload Photos

1,749,154 photos uploaded!

Nearby

Snow Depth

Not available.

Earthquake Activity

City Distance Mag. Time & Date
No recent earthquake activity has been reported nearby.
Minimum magnitude displayed is 2.5.

Coastal Water Temperatures

Place Temperature
No Stations Reporting

Nearby Weather Stations